createdAt,value
2023-02-12T00:00:12.328Z,88432.94
2023-02-12T00:02:38.724Z,88444.06
2023-02-12T00:05:05.475Z,88457.84
2023-02-12T00:07:32.069Z,88458.16
2023-02-12T00:09:58.459Z,88495.31
2023-02-12T00:12:24.857Z,88549.47
2023-02-12T00:14:51.309Z,88579.94
2023-02-12T00:17:17.677Z,88587.41
2023-02-12T00:19:44.128Z,88598.56
2023-02-12T00:22:10.699Z,88597.81
2023-02-12T00:24:37.057Z,88596.28
2023-02-12T00:27:03.511Z,88610.38
2023-02-12T00:29:30.054Z,88562.47
2023-02-12T00:31:56.454Z,88568.75
2023-02-12T00:34:22.896Z,88595.84
2023-02-12T00:36:49.483Z,88586.97
2023-02-12T00:39:15.827Z,88588.03
2023-02-12T00:41:42.224Z,88592.16
2023-02-12T00:44:08.762Z,88591.72
2023-02-12T00:46:35.168Z,88565.06
2023-02-12T00:49:01.660Z,88566.47
2023-02-12T00:51:28.247Z,88579.16
2023-02-12T00:53:54.599Z,88550.56
2023-02-12T00:56:20.938Z,88546.44
2023-02-12T00:58:47.417Z,88556.84
2023-02-12T01:01:13.797Z,88560.53
2023-02-12T01:03:40.237Z,88568.34
2023-02-12T01:06:06.959Z,88581.34
2023-02-12T01:08:33.350Z,88626.59
2023-02-12T01:11:01.405Z,88657.78
2023-02-12T01:13:28.107Z,88682.28
2023-02-12T01:16:06.669Z,88690.84
2023-02-12T01:18:33.271Z,88687.47
2023-02-12T01:20:59.716Z,88697.13
2023-02-12T01:23:26.143Z,88682.28
2023-02-12T01:25:53.043Z,88692.66
2023-02-12T01:28:19.629Z,88707.84
2023-02-12T01:30:46.554Z,88702.19
2023-02-12T01:33:12.986Z,88705.25
2023-02-12T01:35:39.350Z,88722.66
2023-02-12T01:38:05.711Z,88738.56
2023-02-12T01:40:32.285Z,88708.91
2023-02-12T01:43:01.885Z,88703.72
2023-02-12T01:45:28.223Z,88705.84
2023-02-12T01:47:54.757Z,88693.94
2023-02-12T01:50:21.303Z,88680.94
2023-02-12T01:52:53.126Z,88620.06
2023-02-12T01:55:19.729Z,88612.59
2023-02-12T01:57:46.190Z,88661.22
2023-02-12T02:00:21.128Z,88661.97
2023-02-12T02:02:49.320Z,88968.75
2023-02-12T02:05:18.468Z,89114.63
2023-02-12T02:07:44.931Z,89171.09
2023-02-12T02:10:11.313Z,89193.13
2023-02-12T02:12:56.314Z,89223.53
2023-02-12T02:15:22.653Z,89234.72
2023-02-12T02:17:53.541Z,89269.59
2023-02-12T02:20:39.984Z,89294.03
2023-02-12T02:23:09.720Z,89314.84
2023-02-12T02:25:55.326Z,89328.31
2023-02-12T02:28:41.233Z,89345.75
2023-02-12T02:31:10.929Z,89362.72
2023-02-12T02:33:40.783Z,89364.72
2023-02-12T02:36:13.476Z,89389.19
2023-02-12T02:38:51.178Z,89399.59
2023-02-12T02:41:38.015Z,89401.72
2023-02-12T02:44:08.392Z,89418.38
2023-02-12T02:46:37.806Z,89430.78
2023-02-12T02:49:09.534Z,89428.19
2023-02-12T02:51:43.379Z,89442.56
2023-02-12T02:54:13.759Z,89446.41
2023-02-12T02:56:41.486Z,89458.91
2023-02-12T02:59:11.628Z,89480.19
2023-02-12T03:01:44.150Z,89484.91
2023-02-12T03:04:32.416Z,89469.31
2023-02-12T03:07:03.457Z,89493.78
2023-02-12T03:09:37.706Z,89501.56
2023-02-12T03:12:09.480Z,89515.66
2023-02-12T03:14:41.199Z,89530.75
2023-02-12T03:17:14.238Z,89530.75
2023-02-12T03:19:49.221Z,89539.03
2023-02-12T03:22:25.479Z,89547.13
2023-02-12T03:24:55.830Z,89561.97
2023-02-12T03:27:29.443Z,89565.63
2023-02-12T03:29:55.798Z,89573.91
2023-02-12T03:32:34.262Z,89584.31
2023-02-12T03:35:12.598Z,89590.56
2023-02-12T03:37:42.049Z,89605.13
2023-02-12T03:40:16.171Z,89608.00
2023-02-12T03:42:53.697Z,89615.03
2023-02-12T03:45:42.260Z,89616.88
2023-02-12T03:48:08.759Z,89633.81
2023-02-12T03:50:54.619Z,89645.75
2023-02-12T03:53:21.176Z,89650.19
2023-02-12T03:55:49.000Z,89672.31
2023-02-12T03:58:18.998Z,89679.06
2023-02-12T04:00:45.669Z,89688.44
2023-02-12T04:03:12.056Z,89711.31
2023-02-12T04:05:38.449Z,89712.38
2023-02-12T04:08:07.058Z,89728.75
2023-02-12T04:10:48.868Z,89722.78
2023-02-12T04:13:28.886Z,89731.94
2023-02-12T04:16:13.529Z,89747.25
2023-02-12T04:18:47.029Z,89763.41
2023-02-12T04:21:26.479Z,89778.22
2023-02-12T04:24:11.681Z,89786.34
2023-02-12T04:26:41.107Z,89824.84
2023-02-12T04:29:22.866Z,89834.66
2023-02-12T04:32:04.398Z,89827.94
2023-02-12T04:34:38.723Z,89852.38
2023-02-12T04:37:48.607Z,89854.22
2023-02-12T04:40:16.719Z,89883.56
2023-02-12T04:42:50.389Z,89901.28
2023-02-12T04:45:24.817Z,89910.16
2023-02-12T04:47:51.581Z,89917.94
2023-02-12T04:50:18.816Z,89920.53
2023-02-12T04:52:45.217Z,89939.78
2023-02-12T04:55:11.904Z,89974.63
2023-02-12T04:57:38.251Z,89974.63
2023-02-12T05:00:06.400Z,89978.28
2023-02-12T05:02:35.959Z,89973.56
2023-02-12T05:05:02.447Z,89997.53
2023-02-12T05:07:28.871Z,90032.41
2023-02-12T05:09:55.213Z,90035.47
2023-02-12T05:12:21.581Z,90046.34
2023-02-12T05:14:47.953Z,90027.13
2023-02-12T05:17:14.328Z,90040.13
2023-02-12T05:19:40.671Z,90037.81
2023-02-12T05:22:07.300Z,90048.94
2023-02-12T05:24:33.741Z,90054.16
2023-02-12T05:27:00.145Z,90068.22
2023-02-12T05:29:26.788Z,90060.91
2023-02-12T05:31:53.194Z,90074.94
2023-02-12T05:34:20.243Z,90082.00
2023-02-12T05:36:46.795Z,90097.84
2023-02-12T05:39:13.139Z,90117.59
2023-02-12T05:41:39.485Z,90115.78
2023-02-12T05:44:06.738Z,90125.41
2023-02-12T05:46:33.160Z,90149.84
2023-02-12T05:48:59.548Z,90158.72
2023-02-12T05:51:26.413Z,90163.91
2023-02-12T05:53:57.733Z,90184.69
2023-02-12T05:56:31.976Z,90183.16
2023-02-12T05:59:03.682Z,90189.91
2023-02-12T06:01:32.197Z,90204.44
2023-02-12T06:03:59.606Z,90220.31
2023-02-12T06:06:27.019Z,90205.50
2023-02-12T06:08:53.578Z,90214.34
2023-02-12T06:11:20.816Z,90224.75
2023-02-12T06:13:47.575Z,90226.28
2023-02-12T06:16:20.845Z,90230.97
2023-02-12T06:18:47.336Z,90247.91
2023-02-12T06:21:13.888Z,90243.97
2023-02-12T06:23:40.342Z,90252.81
2023-02-12T06:26:06.752Z,90257.25
2023-02-12T06:28:33.170Z,90273.63
2023-02-12T06:30:59.733Z,90277.28
2023-02-12T06:33:26.116Z,90279.59
2023-02-12T06:35:52.467Z,90284.03
2023-02-12T06:38:18.992Z,90307.41
2023-02-12T06:40:45.397Z,90311.56
2023-02-12T06:43:11.917Z,90310.53
2023-02-12T06:45:38.525Z,90327.94
2023-02-12T06:48:05.075Z,90324.56
2023-02-12T06:50:31.457Z,90351.59
2023-02-12T06:52:59.093Z,90350.53
2023-02-12T06:55:25.581Z,90362.00
2023-02-12T06:57:51.923Z,90381.25
2023-02-12T07:00:18.902Z,90371.59
2023-02-12T07:02:45.263Z,90382.78
2023-02-12T07:05:11.697Z,90387.50
2023-02-12T07:07:38.235Z,90396.84
2023-02-12T07:10:04.843Z,90409.31
2023-02-12T07:12:33.417Z,90414.00
2023-02-12T07:14:59.806Z,90428.03
2023-02-12T07:17:26.151Z,90422.06
2023-02-12T07:19:52.491Z,90438.44
2023-02-12T07:22:19.061Z,90445.44
2023-02-12T07:24:45.880Z,90446.22
2023-02-12T07:27:12.218Z,90451.44
2023-02-12T07:29:38.860Z,90454.53
2023-02-12T07:32:05.322Z,90467.53
2023-02-12T07:34:31.733Z,90472.72
2023-02-12T07:36:58.111Z,90495.63
2023-02-12T07:39:24.476Z,90503.16
2023-02-12T07:41:50.856Z,90514.31
2023-02-12T07:44:17.424Z,90509.13
2023-02-12T07:46:48.823Z,90522.13
2023-02-12T07:49:20.123Z,90549.16
2023-02-12T07:51:46.957Z,90549.16
2023-02-12T07:54:13.420Z,90554.38
2023-02-12T07:56:41.099Z,90568.91
2023-02-12T07:59:10.108Z,90581.38
2023-02-12T08:01:37.794Z,90575.13
2023-02-12T08:04:06.110Z,90551.44
2023-02-12T08:06:33.925Z,90540.78
2023-02-12T08:09:01.012Z,90558.97
2023-02-12T08:11:28.292Z,90565.72
2023-02-12T08:13:55.008Z,90550.69
2023-02-12T08:16:22.712Z,90527.25
2023-02-12T08:18:49.282Z,90555.31
2023-02-12T08:21:18.173Z,90516.28
2023-02-12T08:23:44.772Z,90519.72
2023-02-12T08:26:15.556Z,90523.59
2023-02-12T08:28:43.799Z,90507.47
2023-02-12T08:31:13.088Z,90489.75
2023-02-12T08:33:39.503Z,90508.22
2023-02-12T08:36:09.452Z,90495.44
2023-02-12T08:38:36.049Z,90501.91
2023-02-12T08:41:07.951Z,90508.44
2023-02-12T08:43:34.457Z,90517.06
2023-02-12T08:46:05.119Z,90501.69
2023-02-12T08:48:31.669Z,90499.34
2023-02-12T08:51:06.188Z,90481.69
2023-02-12T08:53:32.903Z,90494.94
2023-02-12T08:55:59.341Z,90473.31
2023-02-12T08:58:25.718Z,90511.09
2023-02-12T09:00:52.352Z,90502.25
2023-02-12T09:03:18.753Z,90516.84
2023-02-12T09:05:45.170Z,90491.84
2023-02-12T09:08:11.765Z,90486.63
2023-02-12T09:10:41.889Z,90479.84
2023-02-12T09:13:08.994Z,90472.03
2023-02-12T09:15:44.932Z,90440.78
2023-02-12T09:18:12.172Z,90448.56
2023-02-12T09:20:39.936Z,90439.19
2023-02-12T09:23:10.339Z,90435.56
2023-02-12T09:25:45.391Z,90433.47
2023-02-12T09:28:12.709Z,90418.63
2023-02-12T09:30:39.443Z,90416.31
2023-02-12T09:33:06.233Z,90417.84
2023-02-12T09:35:36.092Z,90408.22
2023-02-12T09:38:03.150Z,90425.69
2023-02-12T09:40:52.480Z,90439.28
2023-02-12T09:43:25.311Z,90423.16
2023-02-12T09:46:02.364Z,90375.19
2023-02-12T09:48:44.012Z,90338.97
2023-02-12T09:51:11.033Z,90302.75
2023-02-12T09:53:43.780Z,90328.56
2023-02-12T09:56:13.709Z,90299.88
2023-02-12T09:58:47.046Z,90272.53
2023-02-12T10:01:14.747Z,90232.88
2023-02-12T10:03:41.217Z,90246.44
2023-02-12T10:06:09.136Z,90239.91
2023-02-12T10:08:41.872Z,90252.13
2023-02-12T10:11:33.039Z,90283.16
2023-02-12T10:14:22.230Z,90296.41
2023-02-12T10:17:03.701Z,90347.47
2023-02-12T10:19:35.092Z,90384.44
2023-02-12T10:22:01.429Z,90393.25
2023-02-12T10:24:30.784Z,90413.22
2023-02-12T10:30:50.055Z,90520.00
2023-02-12T10:33:19.402Z,90571.75
2023-02-12T10:35:49.882Z,90601.41
2023-02-12T10:38:20.272Z,90665.97
2023-02-12T10:40:46.762Z,90678.47
2023-02-12T10:43:13.554Z,90689.84
2023-02-12T10:45:40.964Z,90726.84
2023-02-12T10:48:07.306Z,90746.34
2023-02-12T10:50:50.916Z,90748.69
2023-02-12T10:53:24.932Z,90771.03
2023-02-12T10:56:14.679Z,90781.69
2023-02-12T10:58:50.434Z,90804.84
2023-02-12T11:01:36.732Z,90857.16
2023-02-12T11:04:21.600Z,90876.66
2023-02-12T11:07:07.936Z,90898.28
2023-02-12T11:09:40.159Z,90925.84
2023-02-12T11:12:13.460Z,90940.16
2023-02-12T11:14:39.825Z,90947.44
2023-02-12T11:17:06.203Z,90978.69
2023-02-12T11:19:34.367Z,90977.13
2023-02-12T11:22:10.771Z,90962.00
2023-02-12T11:24:37.423Z,91006.25
2023-02-12T11:27:13.118Z,91004.69
2023-02-12T11:29:39.641Z,91026.03
2023-02-12T11:32:08.460Z,91057.25
2023-02-12T11:34:35.335Z,91077.56
2023-02-12T11:37:01.730Z,91087.44
2023-02-12T11:39:30.367Z,91093.69
2023-02-12T11:42:01.846Z,91112.44
2023-02-12T11:44:36.221Z,91133.28
2023-02-12T11:47:24.542Z,91165.56
2023-02-12T11:49:54.680Z,91193.41
2023-02-12T11:52:25.744Z,91211.38
2023-02-12T11:54:56.601Z,91223.34
2023-02-12T11:57:47.313Z,91260.81
2023-02-12T12:00:32.411Z,91263.19
2023-02-12T12:03:04.889Z,91269.72
2023-02-12T12:05:35.238Z,91282.19
2023-02-12T12:08:04.371Z,91278.56
2023-02-12T12:10:44.048Z,91320.72
2023-02-12T12:13:14.047Z,91345.47
2023-02-12T12:16:01.975Z,91361.91
2023-02-12T12:19:00.359Z,91395.47
2023-02-12T12:21:34.945Z,91407.47
2023-02-12T12:24:03.217Z,91445.72
2023-02-12T12:26:31.154Z,91482.16
2023-02-12T12:28:59.696Z,91484.00
2023-02-12T12:31:32.206Z,91477.53
2023-02-12T12:34:16.823Z,91479.09
2023-02-12T12:37:04.971Z,91476.50
2023-02-12T12:39:55.885Z,91487.22
2023-02-12T12:42:34.448Z,91475.78
2023-02-12T12:45:32.482Z,91514.06
2023-02-12T12:48:32.871Z,91552.09
2023-02-12T12:51:11.252Z,91601.09
2023-02-12T12:54:18.845Z,91667.75
2023-02-12T12:57:03.619Z,91715.72
2023-02-12T12:59:54.522Z,91740.50
2023-02-12T13:02:54.386Z,91748.84
2023-02-12T13:05:37.881Z,91794.41
2023-02-12T13:08:19.584Z,91814.28
2023-02-12T13:11:02.667Z,91834.13
2023-02-12T13:13:43.571Z,91867.75
2023-02-12T13:16:41.457Z,91893.00
2023-02-12T13:19:20.012Z,91919.38
2023-02-12T13:22:01.265Z,91944.66
2023-02-12T13:24:55.662Z,91976.22
2023-02-12T13:27:24.426Z,92009.84
2023-02-12T13:29:58.725Z,92039.53
2023-02-12T13:32:28.214Z,92084.41
2023-02-12T13:34:55.229Z,92110.44
2023-02-12T13:37:28.540Z,92132.88
2023-02-12T13:39:54.966Z,92162.09
2023-02-12T13:42:45.339Z,92171.28
2023-02-12T13:45:20.494Z,92222.59
2023-02-12T13:47:58.904Z,92257.50
2023-02-12T13:50:35.221Z,92294.53
2023-02-12T13:53:36.262Z,92352.38
2023-02-12T13:56:17.738Z,92401.41
2023-02-12T13:58:49.145Z,92467.16
2023-02-12T14:01:35.583Z,92494.56
2023-02-12T14:04:31.185Z,92521.41
2023-02-12T14:07:02.912Z,92526.41
2023-02-12T14:09:47.503Z,92539.75
2023-02-12T14:12:28.046Z,92552.34
2023-02-12T14:15:07.699Z,92537.63
2023-02-12T14:17:34.238Z,92527.53
2023-02-12T14:20:25.210Z,92526.97
2023-02-12T14:22:51.578Z,92568.22
2023-02-12T14:25:23.945Z,92628.19
2023-02-12T14:28:05.822Z,92707.22
2023-02-12T14:30:40.325Z,92797.25
2023-02-12T14:33:07.054Z,92857.78
2023-02-12T14:35:34.709Z,92895.09
2023-02-12T14:38:15.050Z,92956.88
2023-02-12T14:40:47.877Z,93004.66
2023-02-12T14:43:31.100Z,93078.47
2023-02-12T14:45:59.539Z,93126.41
2023-02-12T14:48:57.786Z,93172.63
2023-02-12T14:51:36.270Z,93227.41
2023-02-12T14:54:04.323Z,93259.09
2023-02-12T14:56:30.667Z,93267.53
2023-02-12T14:58:57.086Z,93272.75
2023-02-12T15:01:27.495Z,93276.34
2023-02-12T15:03:54.688Z,93277.97
2023-02-12T15:06:33.308Z,93282.38
2023-02-12T15:09:10.097Z,93285.19
2023-02-12T15:11:43.646Z,93304.03
2023-02-12T15:14:15.376Z,93328.50
2023-02-12T15:16:59.905Z,93345.75
2023-02-12T15:20:02.788Z,93379.06
2023-02-12T15:22:35.707Z,93430.44
2023-02-12T15:25:22.900Z,93499.44
2023-02-12T15:27:49.638Z,93549.56
2023-02-12T15:30:26.424Z,93585.69
2023-02-12T15:32:55.583Z,93622.22
2023-02-12T15:35:23.371Z,93637.44
2023-02-12T15:37:49.747Z,93658.28
2023-02-12T15:40:16.297Z,93675.75
2023-02-12T15:43:01.745Z,93698.41
2023-02-12T15:45:33.597Z,93703.63
2023-02-12T15:48:10.230Z,93713.47
2023-02-12T15:51:00.598Z,93705.25
2023-02-12T15:53:30.225Z,93692.41
2023-02-12T15:55:58.403Z,93675.94
2023-02-12T15:58:38.011Z,93653.50
2023-02-12T16:01:05.705Z,93622.41
2023-02-12T16:03:34.138Z,93598.94
2023-02-12T16:06:13.004Z,93567.84
2023-02-12T16:08:50.374Z,93532.16
2023-02-12T16:11:19.932Z,93497.47
2023-02-12T16:13:48.843Z,93459.38
2023-02-12T16:16:15.260Z,93420.06
2023-02-12T16:18:41.847Z,93367.13
2023-02-12T16:21:17.740Z,93323.81
2023-02-12T16:23:45.450Z,93294.56
2023-02-12T16:26:18.660Z,93282.53
2023-02-12T16:28:48.736Z,93258.50
2023-02-12T16:31:15.789Z,93244.84
2023-02-12T16:33:45.343Z,93229.63
2023-02-12T16:36:24.778Z,93201.16
2023-02-12T16:39:01.471Z,93163.50
2023-02-12T16:41:32.170Z,93134.25
2023-02-12T16:44:01.622Z,93111.00
2023-02-12T16:46:35.394Z,93086.19
2023-02-12T16:49:01.820Z,93079.59
2023-02-12T16:51:30.238Z,93065.94
2023-02-12T16:53:58.210Z,93056.53
2023-02-12T16:56:26.405Z,93046.34
2023-02-12T16:58:57.100Z,93036.13
2023-02-12T17:01:28.725Z,93018.91
2023-02-12T17:03:55.353Z,93002.69
2023-02-12T17:06:23.532Z,92988.09
2023-02-12T17:08:50.082Z,92967.25
2023-02-12T17:11:17.744Z,92949.22
2023-02-12T17:13:45.457Z,92933.00
2023-02-12T17:16:14.509Z,92916.59
2023-02-12T17:18:48.138Z,92878.75
2023-02-12T17:21:25.278Z,92859.72
2023-02-12T17:23:54.180Z,92850.31
2023-02-12T17:26:21.771Z,92815.84
2023-02-12T17:28:48.494Z,92807.47
2023-02-12T17:31:14.968Z,92782.44
2023-02-12T17:33:41.334Z,92765.81
2023-02-12T17:36:08.051Z,92748.59
2023-02-12T17:38:34.408Z,92720.94
2023-02-12T17:41:00.984Z,92691.72
2023-02-12T17:43:27.398Z,92593.81
2023-02-12T17:45:53.878Z,92569.56
2023-02-12T17:48:22.619Z,92556.53
2023-02-12T17:50:53.673Z,92541.13
2023-02-12T17:53:20.019Z,92547.59
2023-02-12T17:55:46.377Z,92549.16
2023-02-12T17:58:12.755Z,92544.78
2023-02-12T18:00:40.794Z,92531.19
2023-02-12T18:03:07.140Z,92548.59
2023-02-12T18:05:33.599Z,92554.63
2023-02-12T18:08:02.191Z,92559.25
2023-02-12T18:10:28.649Z,92568.06
2023-02-12T18:12:55.051Z,92568.06
2023-02-12T18:15:21.496Z,92572.47
2023-02-12T18:17:47.868Z,92576.91
2023-02-12T18:20:14.302Z,92587.75
2023-02-12T18:22:40.722Z,92602.81
2023-02-12T18:25:07.676Z,92624.63
2023-02-12T18:27:34.199Z,92650.66
2023-02-12T18:30:00.652Z,92666.28
2023-02-12T18:32:27.038Z,92699.91
2023-02-12T18:34:53.647Z,92721.56
2023-02-12T18:37:19.986Z,92758.81
2023-02-12T18:39:46.396Z,92793.84
2023-02-12T18:42:12.851Z,92831.31
2023-02-12T18:44:39.356Z,92871.38
2023-02-12T18:47:05.705Z,92910.44
2023-02-12T18:49:32.147Z,92971.13
2023-02-12T18:51:58.526Z,93031.22
2023-02-12T18:54:24.947Z,93082.84
2023-02-12T18:56:52.201Z,93136.94
2023-02-12T18:59:18.857Z,93179.59
2023-02-12T19:01:46.356Z,93241.91
2023-02-12T19:04:13.435Z,93275.56
2023-02-12T19:06:42.506Z,93312.00
2023-02-12T19:09:09.013Z,93336.41
2023-02-12T19:11:35.634Z,93366.88
2023-02-12T19:14:01.997Z,93375.06
2023-02-12T19:16:28.480Z,93377.66
2023-02-12T19:18:56.124Z,93381.28
2023-02-12T19:21:22.631Z,93379.69
2023-02-12T19:23:52.108Z,93369.66
2023-02-12T19:26:18.492Z,93353.03
2023-02-12T19:28:44.939Z,93338.22
2023-02-12T19:31:17.529Z,93317.59
2023-02-12T19:33:44.480Z,93300.78
2023-02-12T19:36:12.224Z,93281.56
2023-02-12T19:38:38.706Z,93271.16
2023-02-12T19:41:06.311Z,93246.72
2023-02-12T19:43:32.968Z,93229.94
2023-02-12T19:46:03.594Z,93204.69
2023-02-12T19:48:30.067Z,93202.88
2023-02-12T19:50:56.812Z,93188.28
2023-02-12T19:53:23.442Z,93176.25
2023-02-12T19:55:49.929Z,93157.06
2023-02-12T19:58:16.349Z,93146.66
2023-02-12T20:00:42.708Z,93133.44
2023-02-12T20:03:09.105Z,93109.03
2023-02-12T20:05:41.928Z,93090.19
2023-02-12T20:08:08.277Z,93071.97
2023-02-12T20:10:34.665Z,93054.19
2023-02-12T20:13:01.163Z,93043.34
2023-02-12T20:15:27.514Z,93041.75
2023-02-12T20:17:53.919Z,93043.34
2023-02-12T20:20:20.281Z,93036.16
2023-02-12T20:22:46.649Z,93042.13
2023-02-12T20:25:13.201Z,93040.75
2023-02-12T20:27:39.578Z,93046.56
2023-02-12T20:30:06.547Z,93043.97
2023-02-12T20:32:33.895Z,93058.97
2023-02-12T20:35:00.258Z,93069.00
2023-02-12T20:37:26.692Z,93075.00
2023-02-12T20:39:53.070Z,93071.97
2023-02-12T20:42:19.432Z,93076.59
2023-02-12T20:44:45.847Z,93075.00
2023-02-12T20:47:12.229Z,93082.59
2023-02-12T20:49:38.639Z,93089.63
2023-02-12T20:52:05.263Z,93097.81
2023-02-12T20:54:31.676Z,93100.22
2023-02-12T20:56:58.012Z,93118.25
2023-02-12T20:59:24.438Z,93141.06
2023-02-12T21:01:51.132Z,93141.88
2023-02-12T21:04:18.386Z,93153.47
2023-02-12T21:06:45.588Z,93150.06
2023-02-12T21:09:12.944Z,93153.47
2023-02-12T21:11:40.896Z,93153.47
2023-02-12T21:14:21.268Z,93151.88
2023-02-12T21:16:48.115Z,93125.88
2023-02-12T21:19:14.513Z,93115.47
2023-02-12T21:21:41.285Z,93113.88
2023-02-12T21:24:08.803Z,93095.03
2023-02-12T21:26:35.562Z,93077.84
2023-02-12T21:29:02.260Z,93056.81
2023-02-12T21:31:33.766Z,93032.59
2023-02-12T21:34:00.769Z,92996.97
2023-02-12T21:36:29.881Z,92979.75
2023-02-12T21:38:56.446Z,92943.78
2023-02-12T21:41:24.583Z,92911.75
2023-02-12T21:43:53.304Z,92881.53
2023-02-12T21:46:22.516Z,92856.53
2023-02-12T21:48:49.167Z,92809.72
2023-02-12T21:51:22.695Z,92771.69
2023-02-12T21:53:50.407Z,92740.25
2023-02-12T21:56:17.169Z,92707.66
2023-02-12T21:58:43.746Z,92671.22
2023-02-12T22:01:15.151Z,92634.81
2023-02-12T22:03:41.736Z,92614.00
2023-02-12T22:06:08.520Z,92588.44
2023-02-12T22:08:35.284Z,92571.22
2023-02-12T22:11:03.480Z,92554.84
2023-02-12T22:13:30.218Z,92531.66
2023-02-12T22:15:57.336Z,92555.63
2023-02-12T22:18:23.704Z,92626.88
2023-02-12T22:20:50.094Z,92643.50
2023-02-12T22:23:16.693Z,92649.72
2023-02-12T22:25:43.030Z,92642.13
2023-02-12T22:28:09.404Z,92641.31
2023-02-12T22:30:36.100Z,92625.72
2023-02-12T22:33:02.510Z,92629.34
2023-02-12T22:35:28.846Z,92618.13
2023-02-12T22:37:55.246Z,92608.31
2023-02-12T22:40:21.737Z,92604.91
2023-02-12T22:42:48.107Z,92598.13
2023-02-12T22:45:14.654Z,92592.91
2023-02-12T22:47:41.035Z,92589.75
2023-02-12T22:50:07.697Z,92586.13
2023-02-12T22:52:34.244Z,92572.53
2023-02-12T22:55:00.564Z,92570.75
2023-02-12T22:57:26.982Z,92564.53
2023-02-12T22:59:53.354Z,92554.94
2023-02-12T23:02:19.898Z,92553.34
2023-02-12T23:04:46.309Z,92549.72
2023-02-12T23:07:12.863Z,92548.16
2023-02-12T23:09:39.287Z,92549.13
2023-02-12T23:12:10.867Z,92550.97
2023-02-12T23:14:37.474Z,92518.16
2023-02-12T23:17:04.172Z,92505.94
2023-02-12T23:19:30.703Z,92498.94
2023-02-12T23:21:57.291Z,92494.50
2023-02-12T23:24:25.534Z,92483.13
2023-02-12T23:26:53.235Z,92492.94
2023-02-12T23:29:19.754Z,92482.53
2023-02-12T23:31:46.202Z,92479.38
2023-02-12T23:34:12.629Z,92479.59
2023-02-12T23:36:39.214Z,92480.59
2023-02-12T23:39:05.867Z,92472.22
2023-02-12T23:41:32.317Z,92453.81
2023-02-12T23:43:58.954Z,92453.00
2023-02-12T23:46:25.394Z,92453.81
2023-02-12T23:48:51.747Z,92441.81
2023-02-12T23:51:18.270Z,92430.63
2023-02-12T23:53:44.626Z,92426.22
2023-02-12T23:56:11.036Z,92415.38
2023-02-12T23:58:37.446Z,92417.38
